Allentown, Pennsylvania
Current Conditions -  °F | °C
As of 9:35 AM on Friday 24 Oct 2014 (Local Time) from KXLL Reporting Station
Scattered Clouds Scattered Clouds  
Wind Chill: 13°   Ceiling: Unl
Heat Index: 13°   Visibility: 10mi
Dew Point:   Wind: 12mph
Humidity: 63%   Direction: 310°NW
Pressure: 29.89"   Gusts: 16mph
Location:  40.6°N, 75.47°W
Report Text: KXLL 241335Z AUTO 31010G14KT 10SM SCT034 13/06 A2989 RMK AO2
Loading
Personal Weather Stations






























Interactive Weather Map
Tropical Storm Tracking
New forecast layout! Learn more

10-Day Weather Forecast

Advertisements
Track Severe Weather on mobile